Time;durP1;ratioP1;P1;durP2;ratioP2;P2;SDS_P1;SDS_P2;PMS_P1;PMS_P2;Temp;Humidity;BMP_temperature;BMP_pressure;BME280_temperature;BME280_humidity;BME280_pressure;Samples;Min_cycle;Max_cycle;Signal;HPM_P1;HPM_P2
2021/03/05 00:01:20;;;;;;;10.73;5.33;;;7.80;99.90;;;;;;4960744;28;20403;-79
2021/03/05 00:03:47;;;;;;;9.90;7.10;;;7.90;99.90;;;;;;4960559;28;20374;-81
2021/03/05 00:06:13;;;;;;;7.60;5.60;;;7.90;99.90;;;;;;4960471;28;20207;-80
2021/03/05 00:08:39;;;;;;;7.00;6.30;;;7.90;99.90;;;;;;4960131;29;20465;-80
2021/03/05 00:11:04;;;;;;;5.70;5.03;;;7.90;99.90;;;;;;4961545;28;20447;-81
2021/03/05 00:13:30;;;;;;;9.73;6.40;;;7.90;99.90;;;;;;4960276;29;20180;-80
2021/03/05 00:15:56;;;;;;;8.03;5.20;;;7.80;99.90;;;;;;4961328;28;20164;-81
2021/03/05 00:18:22;;;;;;;5.87;5.20;;;7.70;99.90;;;;;;4962573;28;20179;-81
2021/03/05 00:20:52;;;;;;;7.80;5.27;;;7.70;99.90;;;;;;4962548;28;20403;-81
2021/03/05 00:23:18;;;;;;;6.97;5.37;;;7.60;99.90;;;;;;4962940;28;20172;-80
2021/03/05 00:25:43;;;;;;;4.67;4.27;;;7.50;99.90;;;;;;4962425;28;20847;-81
2021/03/05 00:28:09;;;;;;;4.90;4.40;;;7.50;99.90;;;;;;4963938;28;20175;-78
2021/03/05 00:30:36;;;;;;;4.30;3.90;;;7.50;99.90;;;;;;4962298;28;20632;-80
2021/03/05 00:33:03;;;;;;;4.70;3.97;;;7.50;99.90;;;;;;4961390;28;20668;-79
2021/03/05 00:35:29;;;;;;;4.43;3.70;;;7.50;99.90;;;;;;4961289;28;20442;-79
2021/03/05 00:37:55;;;;;;;6.00;4.30;;;7.40;99.90;;;;;;4961080;28;20438;-80
2021/03/05 00:40:22;;;;;;;5.80;4.63;;;7.30;99.90;;;;;;4962865;28;20442;-80
2021/03/05 00:42:49;;;;;;;4.90;4.03;;;7.30;99.90;;;;;;4967638;28;20195;-80
2021/03/05 00:45:17;;;;;;;4.63;4.17;;;7.20;99.90;;;;;;4966583;29;20418;-79
2021/03/05 00:47:44;;;;;;;3.70;3.17;;;7.20;99.90;;;;;;4962316;29;20438;-81
2021/03/05 00:50:11;;;;;;;4.27;3.60;;;7.20;99.90;;;;;;4962415;28;20402;-80
2021/03/05 00:52:37;;;;;;;4.50;4.07;;;7.10;99.90;;;;;;4961078;28;20486;-80
2021/03/05 00:55:05;;;;;;;5.80;3.87;;;7.00;99.90;;;;;;4961751;28;20403;-81
2021/03/05 00:57:31;;;;;;;5.50;3.17;;;7.00;99.90;;;;;;4965699;29;20355;-80
2021/03/05 00:59:56;;;;;;;4.83;3.97;;;7.00;99.90;;;;;;4963200;28;20395;-80
2021/03/05 01:02:22;;;;;;;4.23;3.83;;;7.00;99.90;;;;;;4960957;28;20178;-80
2021/03/05 01:04:48;;;;;;;8.40;4.17;;;6.90;99.90;;;;;;4960631;28;20168;-80
2021/03/05 01:07:14;;;;;;;3.90;3.60;;;7.00;99.90;;;;;;4960596;28;20172;-80
2021/03/05 01:09:40;;;;;;;6.33;4.20;;;6.90;99.90;;;;;;4949336;28;20194;-80
2021/03/05 01:12:06;;;;;;;4.80;3.80;;;6.80;99.90;;;;;;4960284;29;20463;-81
2021/03/05 01:14:32;;;;;;;4.43;3.90;;;6.70;99.90;;;;;;4960232;28;20350;-80
2021/03/05 01:16:57;;;;;;;6.20;3.40;;;6.70;99.90;;;;;;4960295;28;20454;-80
2021/03/05 01:19:26;;;;;;;5.90;4.00;;;6.70;99.90;;;;;;4960591;28;20175;-80
2021/03/05 01:21:53;;;;;;;3.03;2.80;;;6.70;99.90;;;;;;4960293;28;20167;-79
2021/03/05 01:24:18;;;;;;;4.90;2.93;;;6.70;99.90;;;;;;4960672;28;20407;-80
2021/03/05 01:26:44;;;;;;;7.30;4.33;;;6.60;99.90;;;;;;4960261;28;20971;-79
2021/03/05 01:29:10;;;;;;;3.30;3.00;;;6.60;99.90;;;;;;4958936;29;20174;-79
2021/03/05 01:31:37;;;;;;;4.17;3.73;;;6.60;99.90;;;;;;4959940;28;20206;-79
2021/03/05 01:34:05;;;;;;;3.73;3.43;;;6.60;99.90;;;;;;4960387;28;20395;-80
2021/03/05 01:36:31;;;;;;;4.20;2.93;;;6.60;99.90;;;;;;4960089;29;20442;-78
2021/03/05 01:38:56;;;;;;;4.33;3.90;;;6.60;99.90;;;;;;4966782;28;20403;-77
2021/03/05 01:41:22;;;;;;;4.83;3.03;;;6.60;99.90;;;;;;4968332;28;20159;-77
2021/03/05 01:43:49;;;;;;;5.43;4.00;;;6.50;99.90;;;;;;4970018;28;20163;-77
2021/03/05 01:46:18;;;;;;;6.90;3.37;;;6.50;99.90;;;;;;4969936;28;20177;-77
2021/03/05 01:48:44;;;;;;;4.60;2.80;;;6.50;99.90;;;;;;4967705;28;20406;-80
2021/03/05 01:51:13;;;;;;;4.03;3.60;;;6.50;99.90;;;;;;4959948;28;20421;-80
2021/03/05 01:53:41;;;;;;;3.30;3.00;;;6.60;99.90;;;;;;4960044;28;20167;-80
2021/03/05 01:56:08;;;;;;;4.10;3.53;;;6.50;99.90;;;;;;4962124;28;20414;-80
2021/03/05 01:58:34;;;;;;;3.67;3.10;;;6.50;99.90;;;;;;4961703;28;20403;-78
2021/03/05 02:01:09;;;;;;;4.07;3.30;;;6.50;99.90;;;;;;4960373;28;20407;-79
2021/03/05 02:03:36;;;;;;;3.70;2.60;;;6.50;99.90;;;;;;4959893;29;20482;-79
2021/03/05 02:06:04;;;;;;;5.20;3.80;;;6.40;99.90;;;;;;4961107;28;20439;-80
2021/03/05 02:08:30;;;;;;;3.23;2.93;;;6.40;99.90;;;;;;4959346;28;20737;-79
2021/03/05 02:10:56;;;;;;;5.20;3.33;;;6.40;99.90;;;;;;4958855;28;20458;-79
2021/03/05 02:13:23;;;;;;;6.33;3.20;;;6.30;99.90;;;;;;4959577;28;20400;-78
2021/03/05 02:15:50;;;;;;;9.93;3.90;;;6.20;99.90;;;;;;4958456;28;20369;-79
2021/03/05 02:18:28;;;;;;;3.93;3.40;;;6.20;99.90;;;;;;4958476;28;20407;-80
2021/03/05 02:21:19;;;;;;;5.50;4.40;;;6.20;99.90;;;;;;4958590;28;20414;-78
2021/03/05 02:24:04;;;;;;;6.17;4.33;;;6.30;99.90;;;;;;4959187;28;20424;-80
2021/03/05 02:26:52;;;;;;;6.50;4.37;;;6.30;99.90;;;;;;4958810;28;20493;-78
2021/03/05 02:29:51;;;;;;;6.43;4.00;;;6.20;99.90;;;;;;4945601;29;20795;-79
2021/03/05 02:32:33;;;;;;;5.00;3.63;;;6.10;99.90;;;;;;4961878;29;20453;-79
2021/03/05 02:35:00;;;;;;;4.73;2.43;;;6.10;99.90;;;;;;4962816;28;20406;-80
2021/03/05 02:37:30;;;;;;;5.90;4.37;;;5.90;99.90;;;;;;4961753;28;20526;-79
2021/03/05 02:40:08;;;;;;;5.37;3.80;;;5.90;99.90;;;;;;4962379;28;20785;-78
2021/03/05 02:42:48;;;;;;;6.77;4.10;;;6.00;99.90;;;;;;4962592;28;20373;-80
2021/03/05 02:45:21;;;;;;;7.70;4.90;;;5.90;99.90;;;;;;4962551;28;20414;-79
2021/03/05 02:47:52;;;;;;;7.27;3.70;;;6.00;99.90;;;;;;4962211;28;20478;-79
2021/03/05 02:50:21;;;;;;;4.90;3.47;;;5.90;99.90;;;;;;4962250;28;20445;-79
2021/03/05 02:52:51;;;;;;;4.93;3.50;;;5.90;99.90;;;;;;4962949;29;20454;-79
2021/03/05 02:55:19;;;;;;;5.37;3.63;;;5.80;99.90;;;;;;4962770;28;20414;-79
2021/03/05 02:57:46;;;;;;;6.53;3.77;;;5.70;99.90;;;;;;4962448;28;20399;-80
2021/03/05 03:00:14;;;;;;;9.33;5.40;;;5.70;99.90;;;;;;4962200;28;20453;-79
2021/03/05 03:02:41;;;;;;;4.10;2.97;;;5.70;99.90;;;;;;4961775;28;20406;-79
2021/03/05 03:05:10;;;;;;;6.43;4.00;;;5.80;99.90;;;;;;4962368;28;20406;-78
2021/03/05 03:07:38;;;;;;;7.60;4.27;;;5.70;99.90;;;;;;4961897;28;20868;-79
2021/03/05 03:10:06;;;;;;;4.67;3.27;;;5.80;99.90;;;;;;4961797;28;20399;-78
2021/03/05 03:12:34;;;;;;;9.03;3.87;;;5.80;99.90;;;;;;4962154;28;20784;-79
2021/03/05 03:15:01;;;;;;;6.57;4.30;;;5.80;99.90;;;;;;4961665;28;20490;-79
2021/03/05 03:17:28;;;;;;;7.83;4.10;;;5.90;99.90;;;;;;4961595;28;20406;-79
2021/03/05 03:19:54;;;;;;;6.53;3.93;;;5.90;99.90;;;;;;4961953;28;20853;-78
2021/03/05 03:22:21;;;;;;;7.33;4.77;;;5.90;99.90;;;;;;4962531;28;20400;-79
2021/03/05 03:24:48;;;;;;;9.53;4.03;;;5.80;99.90;;;;;;4962245;28;20888;-79
2021/03/05 03:27:14;;;;;;;5.70;3.13;;;5.70;99.90;;;;;;4962722;28;20374;-80
2021/03/05 03:29:41;;;;;;;6.47;3.20;;;5.50;99.90;;;;;;4962033;28;20395;-79
2021/03/05 03:32:10;;;;;;;7.60;3.37;;;5.50;99.90;;;;;;4961491;28;20223;-79
2021/03/05 03:34:40;;;;;;;4.60;3.47;;;5.50;99.90;;;;;;4961924;28;20434;-80
2021/03/05 03:37:05;;;;;;;8.47;4.03;;;5.60;99.90;;;;;;4960794;28;20509;-79
2021/03/05 03:39:31;;;;;;;7.37;3.87;;;5.70;99.90;;;;;;4960761;28;20399;-79
2021/03/05 03:41:59;;;;;;;7.53;4.47;;;5.70;99.90;;;;;;4961201;28;20486;-79
2021/03/05 03:44:25;;;;;;;7.53;4.27;;;5.70;99.90;;;;;;4961929;28;20478;-79
2021/03/05 03:46:51;;;;;;;6.40;4.33;;;5.70;99.90;;;;;;4962943;28;20485;-79
2021/03/05 03:49:39;;;;;;;6.33;4.30;;;5.70;99.90;;;;;;4970421;28;20425;-79
2021/03/05 03:52:19;;;;;;;9.93;5.17;;;5.70;99.90;;;;;;4960546;29;20821;-79
2021/03/05 03:54:46;;;;;;;4.93;3.50;;;5.70;99.90;;;;;;4961987;28;20441;-80
2021/03/05 03:57:16;;;;;;;7.90;4.77;;;5.70;99.90;;;;;;4960232;29;20413;-79
2021/03/05 03:59:43;;;;;;;5.93;3.20;;;5.60;99.90;;;;;;4961441;28;20450;-79
2021/03/05 04:02:10;;;;;;;5.77;4.40;;;5.50;99.90;;;;;;4961129;28;20821;-79
2021/03/05 04:04:38;;;;;;;5.60;4.03;;;5.50;99.90;;;;;;4961330;28;20773;-78
2021/03/05 04:07:07;;;;;;;6.20;4.27;;;5.60;99.90;;;;;;4960983;28;20413;-79
2021/03/05 04:09:36;;;;;;;6.20;4.47;;;5.50;99.90;;;;;;4960859;28;20457;-79
2021/03/05 04:12:04;;;;;;;5.40;3.73;;;5.50;99.90;;;;;;4960489;28;20550;-79
2021/03/05 04:14:30;;;;;;;5.13;4.57;;;5.50;99.90;;;;;;4960351;28;20391;-79
2021/03/05 04:16:56;;;;;;;5.30;4.17;;;5.50;99.90;;;;;;4960701;28;20466;-79
2021/03/05 04:19:23;;;;;;;9.63;6.00;;;5.40;99.90;;;;;;4960447;28;20391;-79
2021/03/05 04:21:50;;;;;;;10.93;4.40;;;5.40;99.90;;;;;;4960620;28;20402;-79
2021/03/05 04:24:17;;;;;;;7.93;4.50;;;5.40;99.90;;;;;;4961193;28;20422;-80
2021/03/05 04:26:43;;;;;;;9.00;4.10;;;5.40;99.90;;;;;;4959446;29;20370;-80
2021/03/05 04:29:09;;;;;;;7.80;5.37;;;5.40;99.90;;;;;;4960281;29;20396;-80
2021/03/05 04:31:36;;;;;;;6.00;4.47;;;5.50;99.90;;;;;;4961010;28;20191;-79
2021/03/05 04:34:03;;;;;;;6.50;4.80;;;5.50;99.90;;;;;;4960519;28;20862;-80
2021/03/05 04:36:28;;;;;;;8.80;4.97;;;5.60;99.90;;;;;;4960117;28;20423;-80
2021/03/05 04:38:54;;;;;;;5.90;3.97;;;5.60;99.90;;;;;;4960526;28;20820;-80
2021/03/05 04:41:20;;;;;;;8.10;4.13;;;5.50;99.90;;;;;;4959118;29;20388;-82
2021/03/05 04:43:46;;;;;;;6.87;4.57;;;5.50;99.90;;;;;;4960483;28;20692;-81
2021/03/05 04:46:12;;;;;;;9.00;4.67;;;5.60;99.90;;;;;;4960989;28;20190;-81
2021/03/05 04:48:37;;;;;;;10.40;4.97;;;5.60;99.90;;;;;;4958045;28;20266;-80
2021/03/05 04:51:03;;;;;;;8.57;4.20;;;5.60;99.90;;;;;;4960245;29;20542;-81
2021/03/05 04:53:29;;;;;;;7.17;4.60;;;5.50;99.90;;;;;;4960869;28;20512;-81
2021/03/05 04:55:55;;;;;;;12.27;5.43;;;5.60;99.90;;;;;;4961956;28;20163;-81
2021/03/05 04:58:20;;;;;;;6.87;4.23;;;5.60;99.90;;;;;;4961367;28;20230;-81
2021/03/05 05:00:46;;;;;;;11.57;5.37;;;5.60;99.90;;;;;;4962584;28;20155;-79
2021/03/05 05:03:12;;;;;;;6.47;3.93;;;5.50;99.90;;;;;;4965472;28;20156;-80
2021/03/05 05:05:39;;;;;;;10.23;5.50;;;5.40;99.90;;;;;;4960109;28;20275;-81
2021/03/05 05:08:06;;;;;;;8.77;5.73;;;5.40;99.90;;;;;;4959919;28;20160;-81
2021/03/05 05:10:32;;;;;;;11.27;5.03;;;5.50;99.90;;;;;;4959736;29;20434;-80
2021/03/05 05:12:58;;;;;;;11.27;5.83;;;5.60;99.90;;;;;;4959546;28;20395;-80
2021/03/05 05:15:24;;;;;;;12.20;5.90;;;5.60;99.90;;;;;;4959840;28;20403;-80
2021/03/05 05:17:50;;;;;;;7.97;5.27;;;5.70;99.90;;;;;;4959497;28;20167;-78
2021/03/05 05:20:15;;;;;;;8.93;4.87;;;5.70;99.90;;;;;;4959701;28;20167;-79
2021/03/05 05:22:42;;;;;;;10.30;5.80;;;5.70;99.90;;;;;;4960019;28;20171;-80
2021/03/05 05:25:08;;;;;;;6.83;4.90;;;5.70;99.90;;;;;;4959806;28;20462;-80
2021/03/05 05:27:34;;;;;;;11.17;6.40;;;5.70;99.90;;;;;;4960043;28;20381;-80
2021/03/05 05:30:01;;;;;;;13.17;7.17;;;5.70;99.90;;;;;;4959357;28;20418;-80
2021/03/05 05:32:26;;;;;;;10.43;6.20;;;5.70;99.90;;;;;;4960005;28;20450;-79
2021/03/05 05:34:52;;;;;;;7.80;6.00;;;5.70;99.90;;;;;;4959589;28;20448;-80
2021/03/05 05:37:18;;;;;;;13.20;6.53;;;5.70;99.90;;;;;;4959851;28;20759;-80
2021/03/05 05:39:44;;;;;;;9.83;6.67;;;5.80;99.90;;;;;;4955253;28;20190;-80
2021/03/05 05:42:10;;;;;;;8.53;5.70;;;5.80;99.90;;;;;;4940573;29;20231;-80
2021/03/05 05:44:36;;;;;;;11.33;6.37;;;5.70;99.90;;;;;;4941704;29;20175;-80
2021/03/05 05:47:02;;;;;;;11.50;6.97;;;5.70;99.90;;;;;;4940991;29;20182;-80
2021/03/05 05:49:29;;;;;;;10.20;5.83;;;5.60;99.90;;;;;;4940545;29;20471;-80
2021/03/05 05:52:03;;;;;;;13.57;7.47;;;5.70;99.90;;;;;;4949993;29;20451;-78
2021/03/05 05:54:30;;;;;;;7.83;5.43;;;5.70;99.90;;;;;;4950111;29;20488;-77
2021/03/05 05:56:57;;;;;;;6.47;5.17;;;5.70;99.90;;;;;;4950374;29;20439;-78
2021/03/05 05:59:26;;;;;;;14.00;7.67;;;5.60;99.90;;;;;;4941304;29;20405;-79
2021/03/05 06:01:53;;;;;;;10.73;6.07;;;5.60;99.90;;;;;;4943102;29;20952;-80
2021/03/05 06:04:20;;;;;;;15.40;7.27;;;5.60;99.90;;;;;;4944154;29;20386;-80
2021/03/05 06:06:46;;;;;;;12.03;7.30;;;5.70;99.90;;;;;;4944055;29;20408;-80
2021/03/05 06:09:12;;;;;;;9.13;6.80;;;5.70;99.90;;;;;;4943790;29;20431;-79
2021/03/05 06:11:40;;;;;;;13.73;7.03;;;5.70;99.90;;;;;;4944505;28;20452;-80
2021/03/05 06:14:08;;;;;;;14.73;7.57;;;5.70;99.90;;;;;;4961512;29;20662;-80
2021/03/05 06:16:34;;;;;;;14.53;8.13;;;5.60;99.90;;;;;;4962677;28;20418;-79
2021/03/05 06:19:15;;;;;;;13.40;7.23;;;5.70;99.90;;;;;;4962626;28;20489;-80
2021/03/05 06:21:41;;;;;;;16.93;8.87;;;5.60;99.90;;;;;;4962377;28;20390;-80
2021/03/05 06:24:09;;;;;;;12.70;7.57;;;5.70;99.90;;;;;;4961994;29;20466;-78
2021/03/05 06:26:52;;;;;;;15.90;8.40;;;5.70;99.90;;;;;;4962629;28;20193;-79
2021/03/05 06:29:21;;;;;;;12.83;6.83;;;5.70;99.90;;;;;;4962834;28;20398;-80
2021/03/05 06:31:59;;;;;;;9.30;7.30;;;5.80;99.90;;;;;;4962497;28;20873;-80
2021/03/05 06:34:25;;;;;;;10.40;6.80;;;5.70;99.90;;;;;;4962160;28;20402;-80
2021/03/05 06:37:03;;;;;;;12.20;7.97;;;5.70;99.90;;;;;;4962248;28;20918;-78
2021/03/05 06:39:31;;;;;;;13.80;8.77;;;5.60;99.90;;;;;;4962520;28;20783;-78
2021/03/05 06:41:59;;;;;;;12.60;8.23;;;5.60;99.90;;;;;;4967218;28;20406;-80
2021/03/05 06:44:25;;;;;;;8.93;6.20;;;5.40;99.90;;;;;;4966454;28;20407;-80
2021/03/05 06:46:51;;;;;;;10.03;6.73;;;5.30;99.90;;;;;;4961509;29;20403;-80
2021/03/05 06:49:17;;;;;;;11.57;8.20;;;5.30;99.90;;;;;;4962596;28;20401;-80
2021/03/05 06:51:53;;;;;;;13.90;8.50;;;5.30;99.90;;;;;;4979704;28;20198;-80
2021/03/05 06:54:20;;;;;;;9.27;5.30;;;5.40;99.90;;;;;;4981447;28;20166;-80
2021/03/05 06:56:48;;;;;;;13.80;9.13;;;5.50;99.90;;;;;;4980624;28;20399;-80
2021/03/05 06:59:16;;;;;;;13.53;8.53;;;5.50;99.90;;;;;;4982064;28;20425;-79
2021/03/05 07:01:53;;;;;;;9.70;7.00;;;5.50;99.90;;;;;;4981675;28;20391;-80
2021/03/05 07:04:47;;;;;;;13.77;7.30;;;5.60;99.90;;;;;;4982192;28;20485;-80
2021/03/05 07:07:14;;;;;;;10.60;7.80;;;5.60;99.90;;;;;;4981155;28;20406;-80
2021/03/05 07:09:42;;;;;;;17.53;8.37;;;5.70;99.90;;;;;;4981709;28;20484;-80
2021/03/05 07:12:18;;;;;;;28.83;18.43;;;5.70;99.90;;;;;;4980736;28;20896;-80
2021/03/05 07:14:46;;;;;;;29.83;14.37;;;5.60;99.90;;;;;;4981680;28;20376;-80
2021/03/05 07:17:13;;;;;;;21.83;9.70;;;5.70;99.90;;;;;;4980325;28;20472;-79
2021/03/05 07:19:39;;;;;;;14.37;8.57;;;5.70;99.90;;;;;;4972081;28;20502;-81
2021/03/05 07:22:08;;;;;;;15.67;6.80;;;5.60;99.90;;;;;;4942656;29;20412;-80
2021/03/05 07:24:38;;;;;;;14.07;8.97;;;5.60;99.90;;;;;;4942183;29;20487;-81
2021/03/05 07:27:07;;;;;;;9.37;7.83;;;5.60;99.90;;;;;;4941794;29;20408;-81
2021/03/05 07:29:38;;;;;;;21.53;8.30;;;5.50;99.90;;;;;;4954590;29;20599;-79
2021/03/05 07:32:26;;;;;;;9.90;6.97;;;5.60;99.90;;;;;;4960773;28;20597;-81
2021/03/05 07:34:58;;;;;;;21.17;11.00;;;5.50;99.90;;;;;;4959642;29;20424;-79
2021/03/05 07:37:30;;;;;;;20.77;11.47;;;5.50;99.90;;;;;;4951796;28;20486;-80
2021/03/05 07:39:59;;;;;;;16.93;10.10;;;5.50;99.90;;;;;;4949625;28;20545;-80
2021/03/05 07:42:26;;;;;;;12.93;6.70;;;5.50;99.90;;;;;;4945633;28;20426;-80
2021/03/05 07:44:53;;;;;;;15.53;8.07;;;5.50;99.90;;;;;;4954115;28;20429;-80
2021/03/05 07:47:19;;;;;;;12.50;7.70;;;5.40;99.90;;;;;;4956463;28;20534;-81
2021/03/05 07:49:45;;;;;;;16.60;9.97;;;5.50;99.90;;;;;;4951875;28;20446;-81
2021/03/05 07:52:13;;;;;;;12.60;7.37;;;5.50;99.90;;;;;;4953813;28;20494;-80
2021/03/05 07:54:47;;;;;;;11.13;6.63;;;5.60;99.90;;;;;;4952564;28;20978;-81
2021/03/05 07:57:43;;;;;;;16.57;9.93;;;5.60;99.90;;;;;;4952154;28;20518;-81
2021/03/05 08:00:10;;;;;;;14.10;9.67;;;5.70;99.90;;;;;;4945611;29;20787;-80
2021/03/05 08:02:56;;;;;;;16.97;9.90;;;5.70;99.90;;;;;;4957794;28;20441;-81
2021/03/05 08:05:40;;;;;;;16.53;7.40;;;5.80;99.90;;;;;;4953571;29;20435;-80
2021/03/05 08:08:11;;;;;;;11.97;7.57;;;5.90;99.90;;;;;;4955686;28;20438;-81
2021/03/05 08:10:38;;;;;;;16.20;8.07;;;5.90;99.90;;;;;;4952461;28;20983;-79
2021/03/05 08:13:45;;;;;;;16.93;7.50;;;5.80;99.90;;;;;;4948253;29;20949;-81
2021/03/05 08:16:32;;;;;;;13.90;7.70;;;5.80;99.90;;;;;;4954939;28;20463;-79
2021/03/05 08:19:37;;;;;;;9.40;7.23;;;5.80;99.90;;;;;;4945337;29;20939;-80
2021/03/05 08:22:03;;;;;;;15.43;8.87;;;5.80;99.90;;;;;;4956218;28;20435;-77
2021/03/05 08:24:30;;;;;;;15.17;8.53;;;5.80;99.90;;;;;;4951222;28;20506;-80
2021/03/05 08:27:04;;;;;;;15.07;8.00;;;5.80;99.90;;;;;;4953059;28;20527;-80
2021/03/05 08:29:58;;;;;;;21.60;9.73;;;5.90;99.90;;;;;;4954733;29;20423;-80
2021/03/05 08:32:45;;;;;;;10.47;7.57;;;5.80;99.90;;;;;;4952806;28;20466;-79
2021/03/05 08:35:20;;;;;;;23.33;10.93;;;5.80;99.90;;;;;;4954319;29;20482;-80
2021/03/05 08:38:00;;;;;;;11.07;7.17;;;5.90;99.90;;;;;;4954387;28;20478;-80
2021/03/05 08:40:29;;;;;;;11.47;8.23;;;6.00;99.90;;;;;;4961084;28;20461;-82
2021/03/05 08:42:57;;;;;;;8.10;5.90;;;5.90;99.90;;;;;;4957239;28;20444;-82
2021/03/05 08:45:29;;;;;;;16.90;9.40;;;5.90;99.90;;;;;;4955627;28;20445;-82
2021/03/05 08:47:59;;;;;;;14.50;7.60;;;5.90;99.90;;;;;;4957138;28;20435;-82
2021/03/05 08:50:30;;;;;;;9.50;5.50;;;5.90;99.90;;;;;;4957873;28;20758;-82
2021/03/05 08:53:00;;;;;;;10.67;6.93;;;5.90;99.90;;;;;;4958643;28;20550;-82
2021/03/05 08:55:30;;;;;;;13.13;7.13;;;6.00;99.90;;;;;;4956989;28;20483;-82
2021/03/05 08:57:56;;;;;;;7.00;5.73;;;5.80;99.90;;;;;;4953010;28;20553;-81
2021/03/05 09:00:28;;;;;;;7.67;4.50;;;5.80;99.90;;;;;;4953628;28;20410;-82
2021/03/05 09:03:06;;;;;;;5.63;4.30;;;5.80;99.90;;;;;;4952194;28;20905;-79
2021/03/05 09:05:34;;;;;;;6.07;3.87;;;5.80;99.90;;;;;;4954987;28;20446;-80
2021/03/05 09:08:01;;;;;;;7.20;4.27;;;5.60;99.90;;;;;;4956360;28;20451;-78
2021/03/05 09:10:43;;;;;;;7.77;4.57;;;5.70;99.90;;;;;;4960747;28;20449;-79
2021/03/05 09:13:10;;;;;;;3.63;2.70;;;5.60;99.90;;;;;;4966835;28;20438;-78
2021/03/05 09:15:45;;;;;;;7.67;3.27;;;5.60;99.90;;;;;;4965560;28;20526;-80
2021/03/05 09:18:16;;;;;;;9.20;5.70;;;5.50;99.90;;;;;;4954292;28;20517;-78
2021/03/05 09:20:53;;;;;;;4.30;3.73;;;5.80;99.90;;;;;;4950066;28;21168;-79
2021/03/05 09:23:26;;;;;;;3.47;2.63;;;5.70;99.90;;;;;;4953126;29;20422;-79
2021/03/05 09:25:57;;;;;;;3.27;2.97;;;5.90;99.90;;;;;;4951474;29;20422;-80
2021/03/05 09:28:25;;;;;;;3.80;3.40;;;6.10;99.90;;;;;;4957379;28;20422;-80
2021/03/05 09:30:53;;;;;;;3.73;3.10;;;6.20;99.90;;;;;;4950497;28;20939;-80
2021/03/05 09:33:27;;;;;;;3.40;2.60;;;5.80;99.90;;;;;;4952418;28;20453;-78
2021/03/05 09:36:11;;;;;;;4.80;3.50;;;5.80;99.90;;;;;;4936331;28;20533;-79
2021/03/05 09:38:39;;;;;;;4.77;3.23;;;5.80;99.90;;;;;;4942430;28;20565;-78
2021/03/05 09:41:22;;;;;;;5.10;3.13;;;5.70;99.90;;;;;;4954198;29;20447;-79
2021/03/05 09:44:03;;;;;;;6.43;5.20;;;5.60;99.90;;;;;;4931984;29;20965;-80
2021/03/05 09:46:32;;;;;;;7.70;3.77;;;5.80;99.90;;;;;;4948987;28;20469;-81
2021/03/05 09:48:58;;;;;;;6.80;4.80;;;5.70;99.90;;;;;;4954614;28;20533;-78
2021/03/05 09:51:36;;;;;;;7.53;4.70;;;5.80;99.90;;;;;;4946485;28;20931;-79
2021/03/05 09:54:03;;;;;;;5.50;3.67;;;5.80;99.90;;;;;;4950829;29;20409;-80
2021/03/05 09:56:28;;;;;;;5.20;3.20;;;5.70;99.90;;;;;;4949749;28;20430;-79
2021/03/05 09:58:58;;;;;;;4.50;3.70;;;5.60;99.90;;;;;;4950211;29;20595;-81
2021/03/05 10:01:26;;;;;;;4.33;3.83;;;5.70;99.90;;;;;;4953054;28;20593;-80
2021/03/05 10:03:56;;;;;;;5.57;3.40;;;5.60;99.90;;;;;;4955193;29;20466;-80
2021/03/05 10:06:22;;;;;;;9.83;2.70;;;5.70;99.90;;;;;;4952870;28;20444;-78
2021/03/05 10:08:59;;;;;;;3.27;2.80;;;5.60;99.90;;;;;;4951617;28;20910;-80
2021/03/05 10:11:42;;;;;;;3.47;3.17;;;5.80;99.90;;;;;;4953580;28;20538;-81
2021/03/05 10:14:10;;;;;;;4.70;3.30;;;5.80;99.90;;;;;;4951183;29;20512;-79
2021/03/05 10:16:38;;;;;;;6.30;2.97;;;5.50;99.90;;;;;;4952748;28;20439;-79
2021/03/05 10:19:11;;;;;;;4.70;3.20;;;5.80;99.90;;;;;;4952773;28;20434;-78
2021/03/05 10:21:42;;;;;;;6.40;3.77;;;5.50;99.90;;;;;;4946210;29;20451;-79
2021/03/05 10:24:10;;;;;;;6.37;4.27;;;5.50;99.90;;;;;;4954038;28;20462;-79
2021/03/05 10:26:37;;;;;;;4.40;3.33;;;5.50;99.90;;;;;;4950501;28;20483;-79
2021/03/05 10:29:06;;;;;;;7.10;4.57;;;5.40;99.90;;;;;;4953338;28;20450;-78
2021/03/05 10:31:52;;;;;;;9.13;5.07;;;5.40;99.90;;;;;;4948027;28;20441;-78
2021/03/05 10:34:23;;;;;;;4.67;3.53;;;5.80;99.90;;;;;;4951942;28;20416;-79
2021/03/05 10:36:52;;;;;;;7.10;4.80;;;6.00;99.90;;;;;;4952112;28;20441;-80
2021/03/05 10:39:18;;;;;;;10.43;6.07;;;6.20;99.90;;;;;;4951092;28;20456;-82
2021/03/05 10:41:53;;;;;;;7.90;5.13;;;6.40;99.90;;;;;;4952432;28;20881;-82
2021/03/05 10:44:19;;;;;;;7.27;5.50;;;6.50;99.90;;;;;;4954623;28;20427;-83
2021/03/05 10:46:44;;;;;;;6.83;5.50;;;6.30;99.90;;;;;;4947975;28;20506;-81
2021/03/05 10:49:10;;;;;;;6.67;5.27;;;5.90;99.90;;;;;;4953556;28;20199;-82
2021/03/05 10:51:36;;;;;;;6.30;5.50;;;6.40;99.90;;;;;;4955785;28;20219;-81
2021/03/05 10:54:02;;;;;;;7.73;5.10;;;6.00;99.90;;;;;;4955796;28;20197;-83
2021/03/05 10:56:28;;;;;;;6.80;5.07;;;6.40;99.90;;;;;;4952915;29;20634;-81
2021/03/05 10:58:54;;;;;;;8.00;5.70;;;7.10;99.90;;;;;;4936144;29;20175;-82
2021/03/05 11:01:20;;;;;;;7.70;4.57;;;8.10;99.90;;;;;;4950894;28;20442;-81
2021/03/05 11:03:46;;;;;;;8.40;6.00;;;7.10;99.90;;;;;;4951492;28;20435;-81
2021/03/05 11:06:12;;;;;;;6.83;5.20;;;8.10;99.90;;;;;;4953391;28;20193;-81
2021/03/05 11:08:37;;;;;;;9.20;6.30;;;9.60;99.90;;;;;;4954028;28;20191;-81
2021/03/05 11:11:03;;;;;;;9.50;5.77;;;10.20;99.90;;;;;;4956449;28;20285;-84
2021/03/05 11:13:29;;;;;;;7.53;6.77;;;9.40;99.90;;;;;;4952987;28;20726;-81
2021/03/05 11:15:55;;;;;;;6.00;5.40;;;9.80;99.90;;;;;;4952836;29;20187;-81
2021/03/05 11:18:23;;;;;;;10.60;7.33;;;10.30;99.90;;;;;;4954907;28;20203;-81
2021/03/05 11:20:53;;;;;;;7.07;6.37;;;10.40;99.90;;;;;;4956248;29;20179;-80
2021/03/05 11:23:21;;;;;;;8.00;5.77;;;9.70;99.90;;;;;;4941092;29;20469;-80
2021/03/05 11:25:47;;;;;;;7.73;5.87;;;9.70;99.90;;;;;;4954879;29;20435;-82
2021/03/05 11:28:14;;;;;;;6.87;6.10;;;10.70;99.90;;;;;;4956340;28;20449;-82
2021/03/05 11:30:43;;;;;;;7.70;7.00;;;11.00;99.90;;;;;;4955885;29;20671;-82
2021/03/05 11:33:09;;;;;;;6.13;5.63;;;11.10;99.90;;;;;;4956282;28;20466;-82
2021/03/05 11:35:34;;;;;;;8.00;6.10;;;10.90;99.90;;;;;;4957292;29;20515;-82
2021/03/05 11:38:05;;;;;;;7.47;5.33;;;10.40;99.90;;;;;;4954727;29;20482;-81
2021/03/05 11:40:31;;;;;;;5.40;4.70;;;10.10;99.90;;;;;;4954226;29;20194;-82
2021/03/05 11:42:58;;;;;;;7.90;5.23;;;9.90;99.90;;;;;;4951794;28;20457;-79
2021/03/05 11:45:26;;;;;;;6.93;5.67;;;9.20;99.90;;;;;;4918298;29;20565;-79
2021/03/05 11:47:52;;;;;;;8.40;6.40;;;9.30;99.90;;;;;;4922946;29;20458;-81
2021/03/05 11:50:18;;;;;;;7.23;6.27;;;9.10;99.90;;;;;;4937232;29;20447;-79
2021/03/05 11:52:44;;;;;;;6.60;5.50;;;9.20;99.90;;;;;;4936901;29;20338;-80
2021/03/05 11:55:10;;;;;;;4.80;3.93;;;8.90;99.60;;;;;;4941184;29;20212;-79
2021/03/05 11:57:36;;;;;;;5.63;4.83;;;9.50;99.90;;;;;;4908059;29;20451;-79
2021/03/05 12:00:04;;;;;;;5.63;4.80;;;9.10;99.90;;;;;;4941901;29;20475;-79
2021/03/05 12:02:30;;;;;;;5.33;4.83;;;10.00;99.80;;;;;;4942660;29;20211;-79
2021/03/05 12:04:56;;;;;;;6.10;5.23;;;10.50;99.90;;;;;;4946633;29;20458;-79
2021/03/05 12:07:22;;;;;;;6.50;4.87;;;11.00;97.40;;;;;;4916462;29;20235;-79
2021/03/05 12:09:48;;;;;;;5.87;4.67;;;10.40;96.10;;;;;;4942608;29;20775;-80
2021/03/05 12:12:14;;;;;;;5.60;4.50;;;11.90;93.20;;;;;;4940656;29;20211;-79
2021/03/05 12:14:40;;;;;;;5.87;5.27;;;10.80;91.90;;;;;;4926284;29;20291;-80
2021/03/05 12:17:07;;;;;;;5.80;5.20;;;9.40;95.10;;;;;;4958201;28;20438;-80
2021/03/05 12:19:33;;;;;;;6.37;5.63;;;9.70;96.00;;;;;;4961251;28;20477;-80
2021/03/05 12:21:59;;;;;;;5.43;4.93;;;9.90;96.00;;;;;;4962235;28;20619;-79
2021/03/05 12:24:24;;;;;;;5.57;4.70;;;9.90;96.80;;;;;;4959438;29;20188;-80
2021/03/05 12:26:50;;;;;;;8.67;4.70;;;10.40;95.90;;;;;;4957875;28;20206;-79
2021/03/05 12:29:16;;;;;;;4.47;4.10;;;9.20;95.20;;;;;;4957198;28;20625;-80
2021/03/05 12:31:42;;;;;;;4.60;4.20;;;9.60;99.80;;;;;;4961139;28;20692;-80
2021/03/05 12:34:07;;;;;;;3.80;3.50;;;10.30;94.80;;;;;;4959881;28;20555;-79
2021/03/05 12:36:33;;;;;;;4.17;3.27;;;10.70;92.60;;;;;;4960171;28;20239;-80
2021/03/05 12:39:01;;;;;;;3.90;3.60;;;9.30;93.80;;;;;;4963045;28;20258;-79
2021/03/05 12:41:27;;;;;;;10.17;4.27;;;9.90;95.00;;;;;;4958666;28;20183;-79
2021/03/05 12:43:54;;;;;;;3.67;3.17;;;10.30;93.50;;;;;;4959421;28;20474;-78
2021/03/05 12:46:20;;;;;;;7.90;4.90;;;10.00;92.30;;;;;;4940490;29;20199;-80
2021/03/05 12:48:46;;;;;;;3.87;3.57;;;8.40;96.00;;;;;;4951735;28;20466;-80
2021/03/05 12:51:12;;;;;;;5.53;3.70;;;8.20;96.50;;;;;;4958453;28;20238;-80
2021/03/05 12:53:38;;;;;;;3.47;3.17;;;7.40;97.20;;;;;;4962155;28;20246;-81
2021/03/05 12:56:04;;;;;;;3.97;3.60;;;7.20;95.30;;;;;;4964827;28;20454;-80
2021/03/05 12:58:29;;;;;;;3.23;2.37;;;7.00;95.10;;;;;;4959734;29;20447;-78
2021/03/05 13:00:55;;;;;;;2.43;2.23;;;7.60;97.00;;;;;;4954885;28;20439;-79
2021/03/05 13:03:21;;;;;;;4.20;3.30;;;7.90;95.60;;;;;;4932462;29;20184;-80